Skip Navigation LinksHome page > Weather > Current weather Skip Navigation Links

Current Weather

Central Park, New York

For information only: do not use for flight planning or navigation.
Latest weather
Observation time Monday, October 24, 2016 10:51 PM EDT
Local time Monday, October 24, 2016 11:06 PM EDT
Flight conditions Visual Meteorological Conditions
Wind direction variable
Wind speed 5 mph
Visibility 10 mi.
Sky condition
Ceiling unlimited
Sky clear
Temperature 49°F
Dewpoint 30°F
Altimeter 30.16 in.Hg
Pressure change last 3 hours-0.05 in.Hg
Pressure rising more quickly
Derived measurements
Relative humidity 48%
Wind chill 47°F
Density altitude -698 ft.
Sea-level pressure 30.13 in.Hg
Fully automated report.
System requires maintenance.
Automated weather observing station with precipitation discriminator.
METAR KNYC 250251Z AUTO VRB04KT 10SM CLR 09/M01 A3016 RMK AO2 SLP204 T00941011 53018 $


Location code

InnerDrive.Weather 4.0.5722.1 Release CLR 4.0.30319.34209
Copyright ©2015 Inner Drive Technology. All rights reserved. Portions Copyright ©1986-2015 David Braverman.

Find weather

Site navigation

Skip Navigation Links

Place info

Page info

PayPal - The safer, easier way to pay online!

Return home.

Copyright ©2016 Inner Drive Technology. Purveyors of fine, hand-crafted computer software. Page printed 2016-10-25T03:06:43 UTC.